Time;durP1;ratioP1;P1;durP2;ratioP2;P2;SDS_P1;SDS_P2;PMS_P1;PMS_P2;Temp;Humidity;BMP_temperature;BMP_pressure;BME280_temperature;BME280_humidity;BME280_pressure;Samples;Min_cycle;Max_cycle;Signal;HPM_P1;HPM_P2
2023/07/08 00:00:20;;;;;;;23.73;22.30;;;23.00;99.90;;;;;;5011376;28;20085;-75
2023/07/08 00:02:46;;;;;;;27.73;26.02;;;23.30;99.90;;;;;;5012438;28;20042;-75
2023/07/08 00:05:13;;;;;;;31.63;29.63;;;23.60;99.90;;;;;;5013124;28;20030;-75
2023/07/08 00:07:39;;;;;;;38.17;36.05;;;23.80;99.90;;;;;;5012248;28;20041;-75
2023/07/08 00:10:25;;;;;;;31.85;29.63;;;24.00;99.90;;;;;;5011591;28;20272;-75
2023/07/08 00:12:52;;;;;;;27.63;25.63;;;23.70;99.90;;;;;;5027949;28;20033;-74
2023/07/08 00:15:22;;;;;;;27.08;25.08;;;23.10;99.90;;;;;;5012398;28;20383;-75
2023/07/08 00:17:48;;;;;;;20.00;14.75;;;22.80;99.90;;;;;;5027206;28;20034;-74
2023/07/08 00:20:20;;;;;;;13.15;11.77;;;22.60;99.90;;;;;;5012908;28;20063;-74
2023/07/08 00:22:49;;;;;;;15.43;12.82;;;22.40;99.90;;;;;;5027887;28;20037;-75
2023/07/08 00:25:19;;;;;;;12.18;11.07;;;22.50;99.90;;;;;;5027575;28;20034;-75
2023/07/08 00:27:47;;;;;;;11.98;10.65;;;22.70;99.90;;;;;;5012643;28;20029;-74
2023/07/08 00:30:23;;;;;;;12.95;11.63;;;22.70;99.90;;;;;;5027453;28;20033;-75
2023/07/08 00:32:56;;;;;;;12.00;10.88;;;22.70;99.90;;;;;;5028150;28;20026;-74
2023/07/08 00:35:41;;;;;;;12.88;10.35;;;22.60;99.90;;;;;;5026981;28;20364;-74
2023/07/08 00:38:28;;;;;;;10.75;9.75;;;22.50;99.90;;;;;;5025004;28;20030;-75
2023/07/08 00:41:08;;;;;;;11.98;10.60;;;22.40;99.90;;;;;;4997369;28;20505;-74
2023/07/08 00:43:48;;;;;;;11.13;10.00;;;22.40;99.90;;;;;;5044616;28;20045;-74
2023/07/08 00:46:24;;;;;;;12.25;11.30;;;22.40;99.90;;;;;;5041275;28;20030;-73
2023/07/08 00:48:52;;;;;;;14.77;13.48;;;22.50;99.90;;;;;;5044500;28;20033;-74
2023/07/08 00:51:19;;;;;;;15.55;14.05;;;22.50;99.90;;;;;;5010659;28;20045;-75
2023/07/08 00:53:45;;;;;;;18.80;17.48;;;22.60;99.90;;;;;;5027903;28;20049;-74
2023/07/08 00:56:17;;;;;;;17.80;16.38;;;22.60;99.90;;;;;;5027206;28;20042;-74
2023/07/08 00:59:04;;;;;;;14.52;13.23;;;22.60;99.90;;;;;;5012645;28;20026;-75
2023/07/08 01:01:30;;;;;;;20.65;19.15;;;22.50;99.90;;;;;;5010608;28;20041;-74
2023/07/08 01:04:06;;;;;;;17.98;16.65;;;22.50;99.90;;;;;;5027597;28;20049;-75
2023/07/08 01:06:33;;;;;;;17.35;16.13;;;22.50;99.90;;;;;;5026983;28;20030;-74
2023/07/08 01:09:03;;;;;;;13.60;12.57;;;22.40;99.90;;;;;;5027693;28;20014;-75
2023/07/08 01:11:30;;;;;;;21.55;20.08;;;22.40;99.90;;;;;;5026676;28;20029;-74
2023/07/08 01:13:56;;;;;;;18.92;17.50;;;22.40;99.90;;;;;;5027620;28;20383;-74
2023/07/08 01:16:22;;;;;;;16.50;15.10;;;22.30;99.90;;;;;;5026773;28;20045;-74
2023/07/08 01:18:53;;;;;;;15.63;14.50;;;22.30;99.90;;;;;;5027677;28;20033;-74
2023/07/08 01:21:36;;;;;;;17.13;15.60;;;22.30;99.90;;;;;;5026880;28;20037;-75
2023/07/08 01:24:06;;;;;;;24.30;22.52;;;22.30;99.90;;;;;;5027516;28;20387;-75
2023/07/08 01:26:34;;;;;;;21.85;20.35;;;22.20;99.90;;;;;;5009928;28;20045;-74
2023/07/08 01:29:00;;;;;;;13.35;12.35;;;22.20;99.90;;;;;;5030551;28;20034;-75
2023/07/08 01:31:26;;;;;;;17.05;15.68;;;22.20;99.90;;;;;;5030716;28;20058;-74
2023/07/08 01:33:52;;;;;;;18.38;17.00;;;22.20;99.90;;;;;;5016111;28;20022;-75
2023/07/08 01:36:18;;;;;;;15.65;14.35;;;22.30;99.90;;;;;;5030807;28;20038;-74
2023/07/08 01:38:45;;;;;;;14.35;13.25;;;22.20;99.90;;;;;;5015925;28;20033;-74
2023/07/08 01:41:12;;;;;;;13.30;12.02;;;22.30;99.90;;;;;;5027557;28;20027;-75
2023/07/08 01:43:38;;;;;;;17.02;15.48;;;22.40;99.90;;;;;;5011443;28;20031;-74
2023/07/08 01:46:04;;;;;;;15.48;14.27;;;22.40;99.90;;;;;;5034875;28;20033;-75
2023/07/08 01:48:36;;;;;;;16.08;14.63;;;22.10;99.90;;;;;;5015809;28;20378;-75
2023/07/08 01:51:03;;;;;;;14.38;11.65;;;21.80;99.90;;;;;;5014149;28;20046;-74
2023/07/08 01:53:34;;;;;;;10.85;8.60;;;21.50;99.90;;;;;;5015541;28;20026;-75
2023/07/08 01:56:00;;;;;;;;;;;21.30;99.90;;;;;;5014642;28;20038;-75
2023/07/08 01:58:26;;;;;;;9.15;8.32;;;21.10;99.90;;;;;;5030565;28;19909;-76
2023/07/08 02:00:53;;;;;;;10.65;9.25;;;21.20;99.90;;;;;;5011572;28;20030;-76
2023/07/08 02:03:19;;;;;;;11.25;10.23;;;21.30;99.90;;;;;;5007168;28;20078;-76
2023/07/08 02:05:45;;;;;;;14.15;12.85;;;21.40;99.90;;;;;;5026534;28;20026;-76
2023/07/08 02:08:12;;;;;;;13.63;12.15;;;21.40;99.90;;;;;;5013772;28;20508;-76
2023/07/08 02:10:42;;;;;;;12.23;11.05;;;21.40;99.90;;;;;;5013690;28;20037;-75
2023/07/08 02:13:08;;;;;;;14.07;12.88;;;21.50;99.90;;;;;;5013847;28;20798;-76
2023/07/08 02:15:34;;;;;;;16.15;14.90;;;21.50;99.90;;;;;;5044829;28;20440;-74
2023/07/08 02:18:00;;;;;;;20.05;18.42;;;21.60;99.90;;;;;;5014023;28;20036;-75
2023/07/08 02:20:26;;;;;;;19.90;18.50;;;21.70;99.90;;;;;;5013458;28;20185;-76
2023/07/08 02:22:52;;;;;;;21.50;19.98;;;21.80;99.90;;;;;;5013468;28;20483;-75
2023/07/08 02:25:19;;;;;;;19.35;17.77;;;21.80;99.90;;;;;;5013552;28;20037;-76
2023/07/08 02:27:45;;;;;;;18.25;16.85;;;21.80;99.90;;;;;;5012375;28;20479;-75
2023/07/08 02:30:11;;;;;;;24.55;22.88;;;21.80;99.90;;;;;;5028389;28;20083;-75
2023/07/08 02:32:38;;;;;;;19.38;17.70;;;21.90;99.90;;;;;;5013560;28;20034;-75
2023/07/08 02:35:08;;;;;;;28.85;26.88;;;22.00;99.90;;;;;;5013530;28;20472;-76
2023/07/08 02:37:34;;;;;;;19.13;17.73;;;22.00;99.90;;;;;;5043254;28;20038;-74
2023/07/08 02:40:00;;;;;;;18.13;16.63;;;21.90;99.90;;;;;;5045959;28;20033;-75
2023/07/08 02:42:27;;;;;;;19.73;18.35;;;21.80;99.90;;;;;;5046467;28;20026;-76
2023/07/08 02:44:53;;;;;;;15.40;14.13;;;21.70;99.90;;;;;;5014914;28;20030;-75
2023/07/08 02:47:19;;;;;;;22.05;20.75;;;21.60;99.90;;;;;;5014092;28;20144;-76
2023/07/08 02:49:45;;;;;;;11.48;10.65;;;21.60;99.90;;;;;;5014403;28;20037;-75
2023/07/08 02:52:12;;;;;;;21.98;19.92;;;21.60;99.90;;;;;;5012744;28;20053;-75
2023/07/08 02:54:38;;;;;;;20.17;18.88;;;21.60;99.90;;;;;;5014592;28;20368;-75
2023/07/08 02:57:04;;;;;;;25.88;24.00;;;21.70;99.90;;;;;;5014259;28;20034;-75
2023/07/08 02:59:30;;;;;;;21.13;19.48;;;21.70;99.90;;;;;;5029757;28;20364;-75
2023/07/08 03:01:56;;;;;;;19.90;18.48;;;21.70;99.90;;;;;;5012698;28;20454;-75
2023/07/08 03:04:25;;;;;;;20.60;19.02;;;21.70;99.90;;;;;;5014494;28;20471;-75
2023/07/08 03:06:51;;;;;;;21.63;20.08;;;21.60;99.90;;;;;;5014040;28;20046;-75
2023/07/08 03:09:17;;;;;;;21.58;19.80;;;21.80;99.90;;;;;;5014426;28;20032;-75
2023/07/08 03:11:43;;;;;;;26.50;24.80;;;22.00;99.90;;;;;;5012612;28;20494;-75
2023/07/08 03:14:09;;;;;;;19.58;18.08;;;21.90;99.90;;;;;;5014390;28;20045;-75
2023/07/08 03:16:35;;;;;;;30.88;28.92;;;21.90;99.90;;;;;;5009114;28;20496;-75
2023/07/08 03:19:02;;;;;;;25.13;23.10;;;21.90;99.90;;;;;;4994562;28;20045;-75
2023/07/08 03:21:28;;;;;;;24.17;22.63;;;21.90;99.90;;;;;;5005009;28;20435;-75
2023/07/08 03:23:54;;;;;;;26.75;24.75;;;21.80;99.90;;;;;;5014074;28;20053;-75
2023/07/08 03:26:25;;;;;;;20.67;19.08;;;21.80;99.90;;;;;;5012636;28;20022;-75
2023/07/08 03:28:51;;;;;;;17.33;16.15;;;21.80;99.90;;;;;;5013974;28;20037;-75
2023/07/08 03:31:17;;;;;;;18.70;17.17;;;21.80;99.90;;;;;;5012192;28;20030;-75
2023/07/08 03:33:43;;;;;;;21.35;19.70;;;22.10;99.90;;;;;;5012822;28;20029;-75
2023/07/08 03:36:22;;;;;;;26.77;24.95;;;22.10;99.90;;;;;;5012292;28;20053;-75
2023/07/08 03:38:52;;;;;;;24.27;22.40;;;22.20;99.90;;;;;;5012855;28;20026;-75
2023/07/08 03:41:18;;;;;;;31.83;29.80;;;22.20;99.90;;;;;;5013551;28;20029;-75
2023/07/08 03:43:44;;;;;;;30.35;28.33;;;22.30;99.90;;;;;;5013623;28;20037;-75
2023/07/08 03:46:12;;;;;;;34.03;31.75;;;22.20;99.90;;;;;;5013223;28;20036;-75
2023/07/08 03:48:38;;;;;;;30.48;28.45;;;22.30;99.90;;;;;;4992875;28;20045;-75
2023/07/08 03:51:10;;;;;;;33.80;31.75;;;22.20;99.90;;;;;;5012174;28;20042;-75
2023/07/08 03:53:36;;;;;;;28.13;25.88;;;22.10;99.90;;;;;;4993461;28;20053;-75
2023/07/08 03:56:02;;;;;;;24.20;22.45;;;22.10;99.90;;;;;;4993922;28;20047;-75
2023/07/08 03:58:28;;;;;;;23.77;22.27;;;22.10;99.90;;;;;;5004153;28;20033;-75
2023/07/08 04:00:54;;;;;;;21.50;19.50;;;22.10;99.90;;;;;;5028633;28;20410;-75
2023/07/08 04:03:21;;;;;;;27.05;24.77;;;22.10;99.90;;;;;;5013692;28;20034;-75
2023/07/08 04:05:47;;;;;;;16.30;14.90;;;22.10;99.90;;;;;;5013120;28;20030;-75
2023/07/08 04:08:13;;;;;;;26.15;24.10;;;22.20;99.90;;;;;;5012418;28;20045;-75
2023/07/08 04:10:39;;;;;;;18.55;17.25;;;22.10;99.90;;;;;;5013062;28;20026;-75
2023/07/08 04:13:05;;;;;;;17.13;15.48;;;22.10;99.90;;;;;;5013160;28;20032;-75
2023/07/08 04:15:31;;;;;;;15.55;14.38;;;22.10;99.90;;;;;;5012581;28;20702;-75
2023/07/08 04:17:57;;;;;;;18.25;16.77;;;22.10;99.90;;;;;;5012132;28;20042;-75
2023/07/08 04:20:23;;;;;;;16.10;14.93;;;22.20;99.90;;;;;;5011449;28;20391;-75
2023/07/08 04:22:49;;;;;;;14.75;13.60;;;22.20;99.90;;;;;;5011938;28;20038;-75
2023/07/08 04:25:15;;;;;;;16.35;14.95;;;22.20;99.90;;;;;;5011824;28;20065;-75
2023/07/08 04:27:41;;;;;;;15.55;14.45;;;22.30;99.90;;;;;;4995704;28;20108;-74
2023/07/08 04:30:22;;;;;;;17.88;16.48;;;22.30;99.90;;;;;;5012550;28;20045;-74
2023/07/08 04:32:49;;;;;;;13.45;12.18;;;22.30;99.90;;;;;;4994961;28;20042;-75
2023/07/08 04:35:16;;;;;;;14.25;13.10;;;22.40;99.90;;;;;;5012739;28;20034;-75
2023/07/08 04:37:42;;;;;;;14.48;13.38;;;22.40;99.90;;;;;;5011765;28;20475;-75
2023/07/08 04:40:19;;;;;;;16.15;14.98;;;22.40;99.90;;;;;;5012739;28;20029;-75
2023/07/08 04:42:47;;;;;;;13.00;11.90;;;22.50;99.90;;;;;;5044279;28;20365;-75
2023/07/08 04:45:15;;;;;;;14.48;13.35;;;22.50;99.90;;;;;;5012361;28;20045;-75
2023/07/08 04:47:41;;;;;;;14.88;13.15;;;22.50;99.90;;;;;;5012864;28;20049;-75
2023/07/08 04:50:08;;;;;;;15.23;13.48;;;22.50;99.90;;;;;;5012515;28;20054;-75
2023/07/08 04:52:35;;;;;;;14.15;13.07;;;22.50;99.90;;;;;;5011330;28;20419;-75
2023/07/08 04:55:01;;;;;;;14.40;13.25;;;22.50;99.90;;;;;;5013165;28;20379;-75
2023/07/08 04:57:27;;;;;;;14.52;13.45;;;22.50;99.90;;;;;;5012508;28;20037;-75
2023/07/08 04:59:53;;;;;;;14.65;13.60;;;22.50;99.90;;;;;;5029127;28;20028;-75
2023/07/08 05:02:19;;;;;;;14.52;13.55;;;22.60;99.90;;;;;;4992935;28;20096;-74
2023/07/08 05:04:46;;;;;;;14.80;13.48;;;22.50;99.90;;;;;;5008122;28;20367;-75
2023/07/08 05:07:12;;;;;;;15.10;13.77;;;22.50;99.90;;;;;;5007898;28;20042;-75
2023/07/08 05:09:38;;;;;;;14.52;13.18;;;22.50;99.90;;;;;;4992909;28;20399;-75
2023/07/08 05:12:06;;;;;;;15.35;13.80;;;22.60;99.90;;;;;;4992719;28;20030;-75
2023/07/08 05:14:32;;;;;;;15.23;13.90;;;22.60;99.90;;;;;;4992950;28;20038;-75
2023/07/08 05:16:58;;;;;;;15.57;14.15;;;22.60;99.90;;;;;;5007365;28;20045;-75
2023/07/08 05:19:25;;;;;;;16.27;14.70;;;22.70;99.90;;;;;;5027596;28;20029;-75
2023/07/08 05:21:53;;;;;;;15.05;13.75;;;22.70;99.90;;;;;;5012191;28;20041;-75
2023/07/08 05:24:19;;;;;;;15.82;14.07;;;22.70;99.90;;;;;;5027536;28;20375;-75
2023/07/08 05:26:45;;;;;;;15.80;14.80;;;22.70;99.90;;;;;;5012049;28;20030;-75
2023/07/08 05:29:11;;;;;;;16.17;14.98;;;22.70;99.90;;;;;;5012317;28;20030;-75
2023/07/08 05:31:37;;;;;;;16.73;15.63;;;22.80;99.90;;;;;;5026443;28;20038;-76
2023/07/08 05:34:03;;;;;;;16.65;15.10;;;22.90;99.90;;;;;;5012555;28;20033;-75
2023/07/08 05:36:29;;;;;;;16.10;14.77;;;23.00;99.90;;;;;;5026991;28;20498;-75
2023/07/08 05:38:56;;;;;;;16.73;15.43;;;23.00;99.90;;;;;;5043907;28;20029;-75
2023/07/08 05:41:22;;;;;;;16.88;15.57;;;23.00;99.90;;;;;;5012054;28;20387;-75
2023/07/08 05:43:48;;;;;;;17.33;16.33;;;23.00;99.90;;;;;;5026518;28;20506;-75
2023/07/08 05:46:14;;;;;;;17.73;16.38;;;23.00;99.90;;;;;;5011336;28;20034;-74
2023/07/08 05:48:41;;;;;;;18.33;16.92;;;23.00;99.90;;;;;;5011997;28;20033;-75
2023/07/08 05:51:07;;;;;;;18.85;17.30;;;23.00;99.90;;;;;;5010438;28;20042;-75
2023/07/08 05:53:33;;;;;;;17.77;16.48;;;23.00;99.90;;;;;;5012371;28;20034;-75
2023/07/08 05:55:59;;;;;;;18.75;17.63;;;23.00;99.90;;;;;;5011696;28;20041;-75
2023/07/08 05:58:25;;;;;;;19.10;17.70;;;23.10;99.90;;;;;;5027228;28;20037;-75
2023/07/08 06:00:56;;;;;;;18.05;16.92;;;23.20;99.90;;;;;;5009943;28;20483;-75
2023/07/08 06:03:22;;;;;;;18.08;16.58;;;23.30;99.90;;;;;;5027092;28;20018;-75
2023/07/08 06:05:49;;;;;;;18.85;17.35;;;23.50;99.90;;;;;;5027102;28;20705;-75
2023/07/08 06:08:15;;;;;;;17.05;15.77;;;23.70;99.90;;;;;;5027070;28;20030;-74
2023/07/08 06:10:43;;;;;;;17.02;15.73;;;23.80;99.90;;;;;;5011753;28;20056;-75
2023/07/08 06:13:09;;;;;;;17.50;16.17;;;23.80;99.90;;;;;;5026946;28;20022;-75
2023/07/08 06:15:35;;;;;;;17.92;16.65;;;23.90;99.90;;;;;;5013116;28;20402;-74
2023/07/08 06:18:02;;;;;;;18.55;17.17;;;23.90;99.90;;;;;;5015635;28;20030;-75
2023/07/08 06:20:28;;;;;;;19.02;17.73;;;24.00;99.90;;;;;;5030195;28;20034;-75
2023/07/08 06:22:54;;;;;;;20.13;18.52;;;24.00;99.90;;;;;;5015362;28;20026;-73
2023/07/08 06:25:20;;;;;;;18.80;17.38;;;24.00;99.90;;;;;;5015053;28;20052;-75
2023/07/08 06:27:46;;;;;;;17.85;16.70;;;24.10;99.90;;;;;;5030566;28;20018;-75
2023/07/08 06:30:13;;;;;;;18.88;17.58;;;24.10;99.90;;;;;;5029545;28;20026;-74
2023/07/08 06:32:39;;;;;;;18.13;16.92;;;24.00;99.90;;;;;;5030387;28;20026;-75
2023/07/08 06:35:05;;;;;;;18.17;16.88;;;23.70;99.90;;;;;;5015189;28;20025;-75
2023/07/08 06:37:31;;;;;;;27.00;25.00;;;23.50;99.90;;;;;;5014561;28;20041;-74
2023/07/08 06:39:57;;;;;;;38.97;36.78;;;23.50;99.90;;;;;;5015066;28;20043;-75
2023/07/08 06:42:24;;;;;;;21.90;20.35;;;23.50;99.90;;;;;;5014877;28;20026;-74
2023/07/08 06:44:50;;;;;;;23.13;21.58;;;23.40;99.90;;;;;;5013569;28;20030;-75
2023/07/08 06:47:20;;;;;;;24.67;23.10;;;23.10;99.90;;;;;;5014090;28;20041;-75
2023/07/08 06:49:46;;;;;;;28.55;26.45;;;23.00;99.90;;;;;;5046286;28;20034;-75
2023/07/08 06:52:13;;;;;;;28.42;26.52;;;22.90;99.90;;;;;;5014606;28;20022;-75
2023/07/08 06:54:39;;;;;;;26.55;24.65;;;23.00;99.90;;;;;;5014657;28;20034;-75
2023/07/08 06:57:05;;;;;;;27.98;26.02;;;23.20;99.90;;;;;;5029781;28;20406;-75
2023/07/08 06:59:32;;;;;;;23.10;21.52;;;23.20;99.90;;;;;;5014288;28;20026;-75
2023/07/08 07:01:58;;;;;;;22.67;21.13;;;23.30;99.90;;;;;;5012445;28;20046;-75
2023/07/08 07:04:24;;;;;;;24.00;22.30;;;23.50;99.90;;;;;;5013213;28;20395;-75
2023/07/08 07:06:50;;;;;;;29.98;27.77;;;23.70;99.90;;;;;;5012704;28;20053;-75
2023/07/08 07:09:16;;;;;;;20.95;19.50;;;23.90;99.90;;;;;;5014520;28;20034;-74
2023/07/08 07:11:42;;;;;;;18.10;16.75;;;24.10;99.90;;;;;;5014163;28;20034;-74
2023/07/08 07:14:08;;;;;;;18.25;17.05;;;24.40;99.90;;;;;;5029301;28;20026;-74
2023/07/08 07:16:34;;;;;;;21.05;19.45;;;24.70;99.90;;;;;;5028846;28;20053;-74
2023/07/08 07:19:01;;;;;;;21.95;20.38;;;24.90;99.90;;;;;;5029542;28;20026;-75
2023/07/08 07:21:28;;;;;;;25.10;23.40;;;25.30;99.90;;;;;;5029452;28;20501;-74
2023/07/08 07:23:54;;;;;;;27.33;25.58;;;25.50;99.90;;;;;;5014021;28;20045;-74
2023/07/08 07:26:20;;;;;;;33.20;31.08;;;25.80;99.90;;;;;;5013511;28;20040;-74
2023/07/08 07:28:46;;;;;;;32.22;30.30;;;26.10;99.90;;;;;;5013866;28;20033;-74
2023/07/08 07:31:12;;;;;;;33.58;31.48;;;26.20;99.90;;;;;;5002265;28;20110;-75
2023/07/08 07:33:38;;;;;;;34.05;32.17;;;26.10;99.90;;;;;;4994402;28;20041;-74
2023/07/08 07:36:04;;;;;;;34.60;32.47;;;26.00;99.90;;;;;;5025721;28;20046;-75
2023/07/08 07:38:32;;;;;;;33.83;31.80;;;25.80;99.90;;;;;;5025776;28;20460;-74
2023/07/08 07:40:59;;;;;;;31.42;29.65;;;25.90;99.90;;;;;;5025679;28;20045;-74
2023/07/08 07:43:26;;;;;;;33.63;31.73;;;26.00;99.90;;;;;;5025260;28;20030;-75
2023/07/08 07:45:52;;;;;;;34.72;32.72;;;25.90;99.90;;;;;;5000174;28;20036;-75
2023/07/08 07:48:19;;;;;;;35.88;33.85;;;25.80;99.90;;;;;;5028848;28;20041;-75
2023/07/08 07:50:47;;;;;;;36.20;34.15;;;25.70;99.90;;;;;;5013210;28;20038;-75
2023/07/08 07:53:13;;;;;;;34.05;32.20;;;25.60;99.90;;;;;;5028836;28;20025;-75
2023/07/08 07:55:39;;;;;;;33.08;31.17;;;25.70;99.90;;;;;;5011876;28;20034;-74
2023/07/08 07:58:05;;;;;;;32.90;30.60;;;25.50;99.90;;;;;;5013136;28;20030;-74
2023/07/08 08:00:31;;;;;;;36.33;34.00;;;25.40;99.90;;;;;;5012723;28;20041;-75
2023/07/08 08:02:58;;;;;;;36.70;34.47;;;25.40;99.90;;;;;;5013294;28;20034;-74
2023/07/08 08:05:24;;;;;;;36.20;34.13;;;25.70;99.90;;;;;;5045001;28;20407;-75
2023/07/08 08:07:50;;;;;;;36.10;34.00;;;26.00;99.90;;;;;;5013443;28;20022;-75
2023/07/08 08:10:16;;;;;;;33.78;31.88;;;26.20;99.90;;;;;;5012673;28;20383;-74
2023/07/08 08:12:42;;;;;;;33.97;32.05;;;26.20;99.90;;;;;;5013310;28;20041;-74
2023/07/08 08:15:08;;;;;;;33.40;31.42;;;26.30;99.90;;;;;;5027880;28;20026;-74
2023/07/08 08:17:35;;;;;;;38.40;36.10;;;26.10;99.90;;;;;;5012931;28;20038;-74
2023/07/08 08:20:01;;;;;;;36.45;34.35;;;25.90;99.90;;;;;;5013150;28;20030;-75
2023/07/08 08:22:27;;;;;;;37.75;35.75;;;25.90;99.90;;;;;;5012937;28;20041;-75
2023/07/08 08:24:54;;;;;;;39.60;37.25;;;26.10;99.90;;;;;;5028048;28;20030;-75
2023/07/08 08:27:20;;;;;;;43.08;40.72;;;26.30;99.90;;;;;;5012897;28;20082;-75
2023/07/08 08:29:46;;;;;;;32.65;30.60;;;26.70;99.90;;;;;;5012898;28;20044;-75
2023/07/08 08:32:14;;;;;;;37.25;35.10;;;27.00;99.90;;;;;;5012332;28;20038;-75
2023/07/08 08:34:40;;;;;;;29.88;28.08;;;27.10;99.90;;;;;;5013088;28;20021;-75
2023/07/08 08:37:06;;;;;;;31.80;29.98;;;27.20;99.90;;;;;;5011868;28;20041;-74
2023/07/08 08:39:32;;;;;;;35.65;33.45;;;27.40;99.90;;;;;;5044398;28;20371;-75
2023/07/08 08:41:58;;;;;;;48.75;46.10;;;27.40;99.90;;;;;;5012493;28;20430;-75
2023/07/08 08:44:31;;;;;;;45.53;43.17;;;27.40;99.90;;;;;;5028070;28;20034;-75
2023/07/08 08:47:02;;;;;;;54.35;51.38;;;27.50;99.90;;;;;;5026996;28;20041;-74
2023/07/08 08:49:35;;;;;;;55.05;52.10;;;27.50;99.90;;;;;;5024706;28;20053;-75
2023/07/08 08:52:02;;;;;;;52.67;49.92;;;27.50;99.90;;;;;;4995255;28;20030;-75
2023/07/08 08:54:28;;;;;;;42.25;40.03;;;27.60;99.90;;;;;;5012361;28;20036;-75
2023/07/08 08:57:14;;;;;;;48.15;45.42;;;27.70;99.90;;;;;;5027382;28;20061;-75
2023/07/08 08:59:45;;;;;;;43.30;40.95;;;27.70;99.90;;;;;;5012370;28;20613;-75
2023/07/08 09:02:20;;;;;;;58.17;55.03;;;27.70;99.90;;;;;;5011843;28;20034;-75
2023/07/08 09:04:46;;;;;;;53.28;50.40;;;27.70;99.90;;;;;;5012586;28;20047;-75
2023/07/08 09:07:14;;;;;;;47.20;44.60;;;27.80;99.90;;;;;;5044048;28;20081;-75
2023/07/08 09:09:53;;;;;;;52.72;49.80;;;27.90;99.90;;;;;;5027167;28;20356;-75
2023/07/08 09:12:22;;;;;;;47.58;44.97;;;28.00;99.90;;;;;;5025922;28;20041;-74
2023/07/08 09:14:48;;;;;;;50.45;47.55;;;28.00;99.90;;;;;;5044218;28;20026;-75
2023/07/08 09:17:23;;;;;;;54.75;51.80;;;28.00;99.90;;;;;;5023067;28;20069;-75
2023/07/08 09:20:04;;;;;;;53.00;50.15;;;28.10;99.90;;;;;;4992668;28;20041;-74
2023/07/08 09:22:42;;;;;;;52.03;49.13;;;28.10;99.90;;;;;;5025975;28;20030;-75
2023/07/08 09:25:34;;;;;;;42.38;40.15;;;28.30;99.90;;;;;;5012281;28;20033;-75
2023/07/08 09:28:00;;;;;;;69.00;65.60;;;28.50;99.90;;;;;;5027643;28;20493;-75
2023/07/08 09:30:28;;;;;;;59.97;56.80;;;28.20;99.90;;;;;;5026567;28;20037;-75
2023/07/08 09:32:54;;;;;;;74.80;70.90;;;28.20;99.90;;;;;;5012354;28;20030;-75
2023/07/08 09:35:24;;;;;;;73.93;70.20;;;28.30;99.90;;;;;;5010706;28;20360;-75
2023/07/08 09:37:51;;;;;;;64.97;61.47;;;28.50;99.90;;;;;;5027017;28;20391;-75
2023/07/08 09:40:29;;;;;;;55.78;52.67;;;28.20;99.90;;;;;;5011862;28;20041;-74
2023/07/08 09:43:02;;;;;;;54.70;51.83;;;28.20;99.90;;;;;;5027241;28;20030;-74
2023/07/08 09:45:29;;;;;;;55.53;52.72;;;28.50;99.90;;;;;;5026193;28;20398;-75
2023/07/08 09:47:56;;;;;;;44.00;41.22;;;28.90;99.90;;;;;;5011381;28;20399;-75
2023/07/08 09:50:24;;;;;;;46.92;44.50;;;29.20;99.90;;;;;;4997820;28;20483;-75
2023/07/08 09:52:54;;;;;;;47.10;44.58;;;29.50;99.90;;;;;;5030885;28;20471;-75
2023/07/08 09:55:20;;;;;;;51.38;48.58;;;29.70;99.90;;;;;;5030889;28;20049;-75
2023/07/08 09:57:48;;;;;;;45.72;43.22;;;29.80;99.90;;;;;;5030950;28;20394;-75
2023/07/08 10:00:18;;;;;;;40.45;38.10;;;30.10;99.90;;;;;;5030085;28;20061;-75
2023/07/08 10:03:19;;;;;;;45.33;42.85;;;30.00;99.90;;;;;;5047576;28;20026;-75
2023/07/08 10:05:46;;;;;;;47.30;44.75;;;30.00;99.90;;;;;;5014042;28;20033;-75
2023/07/08 10:08:20;;;;;;;44.85;42.42;;;30.10;99.90;;;;;;5030674;28;20363;-75
2023/07/08 10:11:08;;;;;;;40.40;38.20;;;30.20;99.90;;;;;;5030481;28;20467;-75
2023/07/08 10:13:38;;;;;;;34.88;33.08;;;29.90;99.90;;;;;;5029977;28;20037;-73
2023/07/08 10:16:21;;;;;;;34.75;32.83;;;29.60;99.90;;;;;;5014746;28;20034;-75
2023/07/08 10:18:47;;;;;;;37.15;35.13;;;29.50;99.90;;;;;;5015608;28;20049;-75
2023/07/08 10:21:31;;;;;;;34.20;32.30;;;29.50;99.90;;;;;;5029908;28;20033;-74
2023/07/08 10:24:20;;;;;;;38.53;36.33;;;29.30;99.90;;;;;;5015487;28;20391;-74
2023/07/08 10:27:15;;;;;;;40.80;38.63;;;29.30;99.90;;;;;;5027946;28;20037;-75
2023/07/08 10:29:48;;;;;;;38.38;36.30;;;29.40;99.90;;;;;;5026472;28;20056;-74
2023/07/08 10:32:18;;;;;;;38.15;36.08;;;29.30;99.90;;;;;;5010720;28;20034;-74
2023/07/08 10:35:03;;;;;;;36.75;34.92;;;29.20;99.90;;;;;;4993376;28;20518;-75
2023/07/08 10:37:47;;;;;;;39.53;37.38;;;29.10;99.90;;;;;;4992714;28;20056;-76
2023/07/08 10:40:57;;;;;;;37.90;35.80;;;29.00;99.90;;;;;;4992904;28;20088;-75
2023/07/08 10:43:33;;;;;;;39.70;37.70;;;28.90;99.90;;;;;;4935263;29;20032;-75
2023/07/08 10:46:26;;;;;;;54.67;51.90;;;29.00;99.90;;;;;;4941148;29;20042;-75
2023/07/08 10:48:55;;;;;;;55.17;52.38;;;29.10;99.30;;;;;;4942598;29;20056;-75
2023/07/08 10:51:33;;;;;;;46.42;43.92;;;29.10;99.10;;;;;;4943679;29;20404;-75
2023/07/08 10:54:04;;;;;;;42.42;40.33;;;29.00;99.90;;;;;;4954247;29;20477;-74
2023/07/08 10:56:55;;;;;;;40.33;38.13;;;29.00;99.90;;;;;;4953580;29;20440;-75
2023/07/08 10:59:58;;;;;;;46.28;43.75;;;29.00;99.90;;;;;;4942156;29;20393;-75
2023/07/08 11:02:29;;;;;;;45.88;43.38;;;29.00;99.90;;;;;;4933951;28;20027;-75
2023/07/08 11:05:20;;;;;;;49.17;46.42;;;29.20;99.90;;;;;;4934693;29;20048;-74
2023/07/08 11:07:55;;;;;;;52.38;49.58;;;29.40;99.90;;;;;;4954089;29;20042;-75
2023/07/08 11:10:29;;;;;;;57.50;54.35;;;29.60;99.90;;;;;;4921976;29;20035;-75
2023/07/08 11:13:01;;;;;;;58.72;55.65;;;29.70;99.30;;;;;;4922983;29;20031;-75
2023/07/08 11:15:36;;;;;;;51.40;48.70;;;29.60;97.50;;;;;;4925023;28;20042;-75
2023/07/08 11:18:26;;;;;;;55.53;52.53;;;29.50;99.20;;;;;;4988869;28;20380;-75
2023/07/08 11:21:06;;;;;;;54.33;51.53;;;29.50;97.80;;;;;;5009219;28;20030;-75
2023/07/08 11:23:36;;;;;;;53.35;50.60;;;29.40;97.80;;;;;;5009283;28;20124;-75
2023/07/08 11:26:07;;;;;;;50.72;48.03;;;29.50;99.20;;;;;;5009198;28;20022;-75
2023/07/08 11:28:34;;;;;;;48.58;45.78;;;29.60;99.40;;;;;;5009520;28;20027;-75
2023/07/08 11:31:01;;;;;;;52.20;49.53;;;29.40;99.30;;;;;;5001530;28;20034;-76
2023/07/08 11:33:27;;;;;;;54.35;51.45;;;29.40;99.90;;;;;;5029029;28;20037;-75
2023/07/08 11:35:56;;;;;;;57.83;54.83;;;29.60;99.30;;;;;;5028838;28;20034;-75
2023/07/08 11:38:24;;;;;;;67.57;64.18;;;29.80;99.90;;;;;;5028630;28;20038;-75
2023/07/08 11:40:56;;;;;;;52.38;49.58;;;30.10;99.90;;;;;;5045521;28;20029;-75
2023/07/08 11:43:24;;;;;;;57.20;54.22;;;30.30;99.60;;;;;;5028912;28;20042;-75
2023/07/08 11:45:51;;;;;;;49.97;47.42;;;30.30;99.90;;;;;;5027898;28;20038;-75
2023/07/08 11:48:21;;;;;;;72.68;69.03;;;30.40;99.90;;;;;;5045069;28;20033;-76
2023/07/08 11:50:47;;;;;;;59.13;56.00;;;30.60;99.90;;;;;;5012100;28;20038;-75
2023/07/08 11:53:34;;;;;;;64.07;60.75;;;30.80;99.90;;;;;;5028743;28;20038;-76
2023/07/08 11:56:02;;;;;;;70.97;67.22;;;31.10;99.90;;;;;;5013146;28;20037;-76
2023/07/08 11:58:30;;;;;;;66.05;62.75;;;31.40;99.80;;;;;;5028518;28;20033;-76
2023/07/08 12:01:03;;;;;;;72.13;68.55;;;31.50;99.00;;;;;;5011825;28;20033;-75
2023/07/08 12:03:37;;;;;;;76.30;72.47;;;31.70;98.30;;;;;;5027828;28;20033;-76
2023/07/08 12:06:27;;;;;;;74.78;71.03;;;31.90;99.00;;;;;;5013364;28;20025;-76
2023/07/08 12:08:54;;;;;;;62.50;59.40;;;32.20;98.60;;;;;;5015710;28;20038;-76
2023/07/08 12:11:23;;;;;;;59.20;55.50;;;32.20;97.60;;;;;;5013044;28;20081;-75
2023/07/08 12:13:50;;;;;;;64.57;61.08;;;31.90;98.40;;;;;;5027996;28;20064;-76
2023/07/08 12:16:16;;;;;;;62.83;59.42;;;32.00;99.50;;;;;;5027746;28;20038;-75
2023/07/08 12:18:45;;;;;;;67.57;63.97;;;32.30;99.60;;;;;;5027989;28;20049;-76
2023/07/08 12:21:12;;;;;;;63.22;59.92;;;32.40;97.70;;;;;;5027879;28;20018;-76
2023/07/08 12:23:43;;;;;;;63.83;60.45;;;32.30;97.40;;;;;;5028498;28;20486;-76
2023/07/08 12:26:10;;;;;;;56.63;53.65;;;32.20;97.40;;;;;;5027936;28;20389;-76
2023/07/08 12:28:39;;;;;;;63.15;59.85;;;32.20;97.50;;;;;;5013101;28;20037;-76
2023/07/08 12:31:19;;;;;;;60.45;57.15;;;32.20;98.00;;;;;;5012409;28;20053;-76
2023/07/08 12:33:45;;;;;;;57.33;54.05;;;32.30;98.10;;;;;;5028285;28;20029;-75
2023/07/08 12:36:18;;;;;;;64.22;60.83;;;32.40;98.40;;;;;;5027887;28;20037;-76
2023/07/08 12:38:45;;;;;;;62.55;59.22;;;32.50;98.10;;;;;;5027989;28;20395;-76